Time;durP1;ratioP1;P1;durP2;ratioP2;P2;SDS_P1;SDS_P2;PMS_P1;PMS_P2;Temp;Humidity;BMP_temperature;BMP_pressure;BME280_temperature;BME280_humidity;BME280_pressure;Samples;Min_cycle;Max_cycle;Signal;HPM_P1;HPM_P2
2022/05/27 00:01:28;;;;;;;22.83;4.80;;;14.10;99.90;;;;;;5072121;28;20424;-77
2022/05/27 00:03:59;;;;;;;27.60;5.95;;;14.10;99.90;;;;;;5071625;28;20044;-78
2022/05/27 00:06:25;;;;;;;32.30;5.57;;;14.10;99.90;;;;;;5064192;28;20040;-79
2022/05/27 00:08:50;;;;;;;29.73;6.32;;;14.00;99.90;;;;;;5089853;28;20131;-78
2022/05/27 00:11:17;;;;;;;22.45;4.85;;;14.00;99.90;;;;;;5071816;28;20126;-78
2022/05/27 00:13:42;;;;;;;30.40;5.90;;;14.20;99.90;;;;;;5089882;28;20048;-78
2022/05/27 00:16:09;;;;;;;24.67;5.63;;;14.00;99.90;;;;;;5089672;28;20043;-78
2022/05/27 00:18:34;;;;;;;26.13;5.75;;;13.90;99.90;;;;;;5089138;28;20127;-79
2022/05/27 00:21:00;;;;;;;25.75;5.32;;;14.00;99.90;;;;;;5090777;28;20144;-79
2022/05/27 00:23:26;;;;;;;32.25;5.22;;;13.90;99.90;;;;;;5094060;28;20067;-77
2022/05/27 00:25:52;;;;;;;25.75;5.15;;;14.00;99.90;;;;;;5094449;28;20048;-79
2022/05/27 00:28:18;;;;;;;20.38;4.72;;;13.90;99.90;;;;;;5094090;28;20040;-77
2022/05/27 00:30:44;;;;;;;20.15;4.60;;;14.10;99.90;;;;;;5076289;28;20044;-77
2022/05/27 00:33:10;;;;;;;29.52;4.90;;;13.90;99.90;;;;;;5086411;28;20040;-81
2022/05/27 00:35:35;;;;;;;19.42;4.40;;;13.80;99.90;;;;;;5073586;28;20934;-78
2022/05/27 00:38:01;;;;;;;23.50;5.90;;;14.00;99.90;;;;;;5073437;28;20048;-79
2022/05/27 00:40:35;;;;;;;23.33;4.75;;;13.70;99.90;;;;;;5073569;28;20152;-78
2022/05/27 00:43:00;;;;;;;16.45;4.43;;;13.70;99.90;;;;;;5074377;28;20041;-77
2022/05/27 00:45:26;;;;;;;22.83;3.78;;;13.80;99.90;;;;;;5073422;28;20055;-78
2022/05/27 00:47:57;;;;;;;15.25;3.25;;;13.60;99.90;;;;;;5073307;28;20155;-77
2022/05/27 00:50:26;;;;;;;16.50;3.63;;;13.50;99.90;;;;;;5073072;28;20060;-79
2022/05/27 00:52:53;;;;;;;20.30;3.67;;;13.50;99.90;;;;;;5073179;28;20052;-77
2022/05/27 00:55:22;;;;;;;21.58;3.78;;;13.40;99.90;;;;;;5073030;28;20548;-77
2022/05/27 00:57:52;;;;;;;15.95;3.85;;;13.50;99.90;;;;;;5073415;28;20056;-78
2022/05/27 01:00:22;;;;;;;15.13;4.18;;;13.30;99.90;;;;;;5073141;28;20048;-78
2022/05/27 01:02:48;;;;;;;24.60;3.63;;;13.30;99.90;;;;;;5062927;28;20044;-79
2022/05/27 01:05:18;;;;;;;19.25;3.55;;;13.20;99.90;;;;;;5075033;28;20050;-79
2022/05/27 01:07:43;;;;;;;13.05;2.80;;;13.20;99.90;;;;;;5075104;28;20074;-80
2022/05/27 01:10:18;;;;;;;16.67;3.03;;;13.40;99.90;;;;;;5093210;28;20040;-79
2022/05/27 01:13:02;;;;;;;;;;;13.10;99.90;;;;;;5093784;28;20058;-75
2022/05/27 01:15:52;;;;;;;19.52;3.70;;;13.00;99.90;;;;;;5074825;28;19931;-76
2022/05/27 01:20:18;;;;;;;15.63;3.15;;;13.00;99.90;;;;;;5069688;28;20561;-77
2022/05/27 01:21:25;;;;;;;23.75;3.95;;;13.00;99.90;;;;;;5072532;28;20101;-78
2022/05/27 01:24:12;;;;;;;16.42;3.17;;;13.00;99.90;;;;;;5072293;28;20376;-78
2022/05/27 01:26:58;;;;;;;14.82;3.50;;;12.90;99.90;;;;;;5090395;28;20555;-78
2022/05/27 01:30:00;;;;;;;19.52;2.80;;;12.90;99.90;;;;;;5092861;28;20051;-77
2022/05/27 01:32:39;;;;;;;19.58;3.28;;;12.80;99.90;;;;;;5065103;28;20044;-77
2022/05/27 01:35:20;;;;;;;19.70;3.00;;;12.80;99.90;;;;;;5085164;28;20406;-79
2022/05/27 01:38:00;;;;;;;16.65;3.38;;;13.10;99.90;;;;;;5092818;28;20047;-79
2022/05/27 01:40:27;;;;;;;21.05;2.90;;;12.70;99.90;;;;;;5092611;28;20036;-78
2022/05/27 01:43:11;;;;;;;22.65;3.45;;;12.70;99.90;;;;;;5074515;28;20407;-77
2022/05/27 01:45:48;;;;;;;15.00;3.00;;;12.60;99.90;;;;;;5092435;28;20079;-76
2022/05/27 01:48:25;;;;;;;20.08;2.92;;;12.60;99.90;;;;;;5092582;28;20141;-78
2022/05/27 01:51:16;;;;;;;14.50;2.95;;;12.50;99.90;;;;;;5073807;28;20052;-79
2022/05/27 01:53:47;;;;;;;19.08;2.92;;;12.50;99.90;;;;;;5092150;28;20032;-80
2022/05/27 01:56:19;;;;;;;19.25;2.90;;;12.50;99.90;;;;;;5073990;28;20055;-80
2022/05/27 01:59:00;;;;;;;18.13;3.92;;;12.40;99.90;;;;;;5092437;28;20047;-78
2022/05/27 02:01:36;;;;;;;20.63;2.78;;;12.40;99.90;;;;;;5079757;28;20048;-79
2022/05/27 02:04:20;;;;;;;23.10;3.40;;;12.40;99.90;;;;;;5062944;28;20054;-80
2022/05/27 02:06:59;;;;;;;16.55;2.83;;;12.30;99.90;;;;;;5086038;28;20051;-80
2022/05/27 02:09:31;;;;;;;20.77;3.58;;;12.30;99.90;;;;;;5087559;28;20098;-78
2022/05/27 02:12:05;;;;;;;15.40;2.75;;;12.50;99.90;;;;;;5091262;28;20052;-76
2022/05/27 02:14:46;;;;;;;13.37;2.80;;;12.20;99.90;;;;;;5091777;28;20059;-80
2022/05/27 02:17:16;;;;;;;11.00;2.50;;;12.20;99.90;;;;;;5082019;28;20040;-77
2022/05/27 02:19:47;;;;;;;16.58;2.58;;;12.10;99.90;;;;;;5091420;28;20047;-79
2022/05/27 02:22:23;;;;;;;11.20;2.53;;;12.10;99.90;;;;;;5091720;28;20433;-77
2022/05/27 02:25:14;;;;;;;14.98;3.03;;;12.00;99.90;;;;;;5091860;28;20080;-78
2022/05/27 02:27:53;;;;;;;9.73;2.28;;;12.00;99.90;;;;;;5051682;28;20106;-78
2022/05/27 02:30:23;;;;;;;13.70;2.80;;;12.00;99.90;;;;;;5091757;28;20097;-77
2022/05/27 02:35:07;;;;;;;16.52;2.65;;;11.90;99.90;;;;;;5080984;28;20051;-79
2022/05/27 02:35:44;;;;;;;11.98;2.90;;;11.80;99.90;;;;;;5070496;28;20060;-78
2022/05/27 02:38:10;;;;;;;16.33;2.60;;;11.80;99.90;;;;;;5091573;28;20050;-78
2022/05/27 02:40:59;;;;;;;15.93;3.05;;;11.70;99.90;;;;;;5091304;28;20498;-79
2022/05/27 02:43:43;;;;;;;9.30;2.30;;;11.60;99.90;;;;;;5084840;28;20059;-78
2022/05/27 02:46:18;;;;;;;15.82;2.70;;;11.60;99.90;;;;;;5071797;28;20060;-78
2022/05/27 02:49:01;;;;;;;14.93;3.45;;;11.60;99.90;;;;;;5080634;28;20051;-77
2022/05/27 02:51:44;;;;;;;14.05;3.08;;;11.50;99.90;;;;;;5091071;28;20044;-77
2022/05/27 02:54:28;;;;;;;13.73;2.65;;;11.50;99.90;;;;;;5091037;28;20043;-77
2022/05/27 02:57:03;;;;;;;11.27;2.70;;;11.70;99.90;;;;;;5091033;28;20049;-76
2022/05/27 02:59:30;;;;;;;15.20;3.15;;;11.40;99.90;;;;;;5091006;28;20075;-78
2022/05/27 03:02:07;;;;;;;19.25;2.80;;;11.40;99.90;;;;;;5090524;28;20128;-76
2022/05/27 03:04:33;;;;;;;15.60;3.05;;;11.30;99.90;;;;;;5090971;28;20150;-76
2022/05/27 03:07:39;;;;;;;11.35;2.53;;;11.20;99.90;;;;;;5072678;28;20044;-77
2022/05/27 03:10:35;;;;;;;13.27;2.40;;;11.20;99.90;;;;;;5091222;28;20433;-76
2022/05/27 03:13:19;;;;;;;11.52;2.60;;;11.10;99.90;;;;;;5090541;28;20101;-75
2022/05/27 03:16:05;;;;;;;16.45;2.80;;;11.00;99.90;;;;;;5090859;28;20036;-76
2022/05/27 03:19:01;;;;;;;14.70;3.03;;;11.00;99.90;;;;;;5090628;28;20048;-77
2022/05/27 03:21:47;;;;;;;17.92;3.15;;;11.00;99.90;;;;;;5090085;28;20094;-78
2022/05/27 03:24:36;;;;;;;17.33;2.80;;;11.00;99.90;;;;;;5090586;28;20507;-76
2022/05/27 03:27:36;;;;;;;16.58;2.95;;;11.00;99.90;;;;;;5090591;28;20093;-77
2022/05/27 03:30:02;;;;;;;16.65;2.97;;;11.00;99.90;;;;;;5090253;28;20054;-77
2022/05/27 03:32:36;;;;;;;17.15;2.80;;;11.00;99.90;;;;;;5081315;28;20131;-78
2022/05/27 03:35:24;;;;;;;15.02;2.78;;;11.00;99.90;;;;;;5082854;28;20043;-78
2022/05/27 03:38:10;;;;;;;17.77;2.58;;;11.20;99.90;;;;;;5090575;28;20052;-78
2022/05/27 03:40:47;;;;;;;14.60;2.88;;;10.90;99.90;;;;;;5072446;28;20429;-77
2022/05/27 03:43:14;;;;;;;16.75;3.00;;;10.90;99.90;;;;;;5071669;28;20090;-76
2022/05/27 03:45:52;;;;;;;11.52;2.20;;;10.90;99.90;;;;;;5090343;28;20055;-77
2022/05/27 03:48:19;;;;;;;10.93;2.72;;;10.80;99.90;;;;;;5089898;28;20109;-76
2022/05/27 03:50:48;;;;;;;21.80;2.42;;;11.00;99.90;;;;;;5071925;28;20055;-75
2022/05/27 03:53:14;;;;;;;20.42;2.88;;;10.80;99.90;;;;;;5071802;28;20165;-76
2022/05/27 03:55:44;;;;;;;15.68;3.15;;;10.90;99.90;;;;;;5089332;28;20044;-76
2022/05/27 03:58:15;;;;;;;14.55;2.33;;;10.90;99.90;;;;;;5076400;28;20127;-75
2022/05/27 04:00:42;;;;;;;17.88;2.97;;;10.90;99.90;;;;;;5090141;28;20517;-76
2022/05/27 04:03:09;;;;;;;13.40;2.55;;;11.10;99.90;;;;;;5090076;28;20036;-75
2022/05/27 04:05:36;;;;;;;20.60;3.28;;;11.00;99.90;;;;;;5090036;28;20165;-75
2022/05/27 04:08:02;;;;;;;15.10;2.90;;;11.00;99.90;;;;;;5089851;28;20040;-76
2022/05/27 04:10:28;;;;;;;21.45;3.15;;;11.10;99.90;;;;;;5089612;28;20072;-77
2022/05/27 04:12:54;;;;;;;16.77;3.13;;;11.20;99.90;;;;;;5089662;28;20043;-76
2022/05/27 04:15:19;;;;;;;17.33;3.22;;;11.20;99.90;;;;;;5090209;28;20105;-76
2022/05/27 04:17:45;;;;;;;12.02;2.97;;;11.20;99.90;;;;;;5087871;28;20040;-75
2022/05/27 04:20:16;;;;;;;14.63;3.30;;;11.20;99.90;;;;;;5051745;28;20059;-75
2022/05/27 04:22:42;;;;;;;24.75;3.30;;;11.50;99.90;;;;;;5069679;28;20411;-77
2022/05/27 04:25:08;;;;;;;18.55;3.45;;;11.30;99.90;;;;;;5051188;28;20061;-77
2022/05/27 04:27:35;;;;;;;21.55;3.50;;;11.30;99.90;;;;;;5051684;28;20104;-77
2022/05/27 04:30:01;;;;;;;13.35;2.95;;;11.40;99.90;;;;;;5069270;28;20107;-77
2022/05/27 04:32:27;;;;;;;19.42;3.22;;;11.50;99.90;;;;;;5067594;28;20041;-78
2022/05/27 04:34:54;;;;;;;19.33;4.07;;;11.50;99.90;;;;;;5069408;28;20491;-77
2022/05/27 04:37:21;;;;;;;17.75;3.15;;;11.50;99.90;;;;;;5069535;28;20494;-76
2022/05/27 04:39:47;;;;;;;16.52;2.60;;;11.60;99.90;;;;;;5068684;28;20086;-78
2022/05/27 04:42:13;;;;;;;13.38;2.65;;;11.60;99.90;;;;;;5051332;28;20123;-78
2022/05/27 04:44:39;;;;;;;18.63;2.83;;;11.60;99.90;;;;;;5067834;28;20127;-78
2022/05/27 04:47:07;;;;;;;19.65;3.03;;;11.70;99.90;;;;;;5051407;28;20080;-76
2022/05/27 04:49:51;;;;;;;21.98;2.63;;;11.70;99.90;;;;;;5069493;28;20048;-78
2022/05/27 04:52:27;;;;;;;17.20;2.55;;;11.70;99.90;;;;;;5049799;28;20040;-76
2022/05/27 04:54:54;;;;;;;18.92;3.63;;;11.70;99.90;;;;;;5055354;28;20049;-77
2022/05/27 04:57:26;;;;;;;13.57;2.55;;;11.70;99.90;;;;;;5049481;28;20094;-77
2022/05/27 04:59:52;;;;;;;13.00;3.20;;;12.10;99.90;;;;;;5049302;28;20539;-76
2022/05/27 05:02:20;;;;;;;14.20;2.70;;;11.80;99.90;;;;;;5049315;28;20163;-76
2022/05/27 05:04:47;;;;;;;16.48;2.80;;;11.70;99.90;;;;;;5049113;28;20087;-77
2022/05/27 05:07:13;;;;;;;12.40;2.17;;;11.70;99.90;;;;;;5050575;28;20041;-78
2022/05/27 05:09:41;;;;;;;22.45;2.40;;;11.90;99.90;;;;;;5042440;28;20139;-77
2022/05/27 05:12:09;;;;;;;20.63;2.50;;;11.70;99.90;;;;;;5064674;28;20506;-77
2022/05/27 05:14:35;;;;;;;15.02;2.95;;;11.70;99.90;;;;;;5052940;28;20047;-76
2022/05/27 05:17:01;;;;;;;19.65;2.03;;;11.80;99.90;;;;;;5052903;28;20423;-77
2022/05/27 05:19:27;;;;;;;15.20;2.63;;;11.60;99.90;;;;;;5052283;28;20106;-75
2022/05/27 05:21:53;;;;;;;17.90;2.63;;;11.60;99.90;;;;;;5091826;28;20044;-77
2022/05/27 05:24:19;;;;;;;19.65;2.83;;;11.60;99.90;;;;;;5093241;28;20496;-76
2022/05/27 05:26:45;;;;;;;19.67;2.97;;;11.60;99.90;;;;;;5074629;28;20157;-78
2022/05/27 05:29:10;;;;;;;14.98;2.50;;;11.60;99.90;;;;;;5092889;28;20482;-78
2022/05/27 05:31:36;;;;;;;15.25;2.85;;;11.40;99.90;;;;;;5092556;28;20051;-75
2022/05/27 05:34:02;;;;;;;14.73;2.58;;;11.70;99.90;;;;;;5091193;28;20130;-76
2022/05/27 05:36:29;;;;;;;11.68;2.38;;;11.70;99.90;;;;;;5092468;28;20059;-77
2022/05/27 05:38:55;;;;;;;16.80;2.80;;;11.80;99.90;;;;;;5092917;28;20032;-78
2022/05/27 05:41:29;;;;;;;20.58;2.67;;;12.00;99.90;;;;;;5092006;28;20128;-77
2022/05/27 05:43:55;;;;;;;20.20;3.65;;;11.90;99.90;;;;;;5092808;28;20089;-77
2022/05/27 05:46:22;;;;;;;27.20;2.78;;;11.90;99.90;;;;;;5092825;28;20091;-76
2022/05/27 05:48:48;;;;;;;15.40;2.85;;;12.00;99.90;;;;;;5093041;28;20152;-77
2022/05/27 05:51:13;;;;;;;17.98;2.85;;;12.10;99.90;;;;;;5092302;28;20127;-81
2022/05/27 05:53:39;;;;;;;11.07;2.35;;;12.20;99.90;;;;;;5091702;28;20078;-78
2022/05/27 05:56:05;;;;;;;14.00;2.28;;;12.30;99.90;;;;;;5074327;28;20084;-77
2022/05/27 05:58:31;;;;;;;13.75;3.03;;;12.40;99.90;;;;;;5074241;28;20067;-77
2022/05/27 06:00:56;;;;;;;16.83;3.08;;;12.40;99.90;;;;;;5092324;28;20044;-77
2022/05/27 06:03:22;;;;;;;16.52;3.72;;;12.50;99.90;;;;;;5091601;28;20055;-77
2022/05/27 06:05:48;;;;;;;16.95;2.67;;;12.30;99.90;;;;;;5092347;28;20116;-77
2022/05/27 06:08:15;;;;;;;12.45;2.45;;;12.60;99.90;;;;;;5092071;28;20040;-77
2022/05/27 06:10:41;;;;;;;12.98;2.95;;;12.60;99.90;;;;;;5091227;28;20048;-76
2022/05/27 06:13:07;;;;;;;16.63;2.33;;;12.50;99.90;;;;;;5073974;28;20052;-76
2022/05/27 06:15:33;;;;;;;16.33;3.05;;;12.60;99.90;;;;;;5091267;28;20508;-78
2022/05/27 06:18:01;;;;;;;20.95;3.17;;;12.60;99.90;;;;;;5091677;28;20123;-79
2022/05/27 06:20:27;;;;;;;14.13;2.72;;;12.60;99.90;;;;;;5091354;28;20075;-78
2022/05/27 06:22:53;;;;;;;17.67;2.60;;;12.60;99.90;;;;;;5091794;28;20048;-78
2022/05/27 06:25:19;;;;;;;15.20;2.90;;;12.80;99.90;;;;;;5091994;28;20544;-77
2022/05/27 06:27:44;;;;;;;14.05;2.88;;;12.70;99.90;;;;;;5073327;28;20048;-77
2022/05/27 06:35:24;;;;;;;13.23;2.67;;;13.10;99.90;;;;;;5091497;28;20433;-79
2022/05/27 06:37:50;;;;;;;14.35;2.63;;;12.90;99.90;;;;;;5073543;28;20059;-78
2022/05/27 06:40:17;;;;;;;16.60;2.78;;;13.00;99.90;;;;;;5091755;28;20040;-77
2022/05/27 06:42:43;;;;;;;14.75;3.03;;;13.10;99.90;;;;;;5090897;28;20048;-82
2022/05/27 06:45:11;;;;;;;23.17;3.55;;;13.50;99.90;;;;;;5091255;28;20056;-79
2022/05/27 06:47:40;;;;;;;18.35;2.67;;;13.30;99.90;;;;;;5072829;28;20126;-78
2022/05/27 06:50:07;;;;;;;18.60;2.70;;;13.20;99.90;;;;;;5091074;28;20048;-81
2022/05/27 06:52:33;;;;;;;17.17;2.60;;;13.40;99.90;;;;;;5089838;28;20033;-80
2022/05/27 06:54:58;;;;;;;16.08;2.42;;;13.40;99.90;;;;;;5072484;28;20139;-81
2022/05/27 06:57:24;;;;;;;20.33;2.75;;;13.60;99.90;;;;;;5090866;28;20477;-80
2022/05/27 06:59:50;;;;;;;15.98;2.72;;;13.60;99.90;;;;;;5091082;28;20062;-81
2022/05/27 07:02:16;;;;;;;16.48;3.00;;;13.80;99.90;;;;;;5071634;28;20059;-83
2022/05/27 07:04:41;;;;;;;13.32;2.60;;;13.70;99.90;;;;;;5090861;28;20039;-78
2022/05/27 07:07:07;;;;;;;15.25;3.38;;;13.80;99.90;;;;;;5073069;28;20445;-78
2022/05/27 07:09:37;;;;;;;14.18;2.38;;;13.80;99.90;;;;;;5072599;28;20051;-83
2022/05/27 07:12:08;;;;;;;16.48;2.55;;;13.70;99.90;;;;;;5090754;28;20040;-78
2022/05/27 07:14:36;;;;;;;18.73;2.60;;;13.70;99.90;;;;;;5089959;28;20130;-79
2022/05/27 07:17:04;;;;;;;18.40;3.03;;;13.80;99.90;;;;;;5072522;28;20748;-79
2022/05/27 07:19:30;;;;;;;15.77;2.60;;;13.80;99.90;;;;;;5071561;28;20571;-81
2022/05/27 07:21:56;;;;;;;15.02;2.45;;;13.80;99.90;;;;;;5085306;28;20089;-80
2022/05/27 07:24:23;;;;;;;18.63;2.53;;;14.10;99.90;;;;;;5090669;28;20048;-80
2022/05/27 07:26:49;;;;;;;14.65;3.33;;;13.90;99.90;;;;;;5090033;28;20058;-82
2022/05/27 07:29:15;;;;;;;15.43;2.78;;;14.40;99.90;;;;;;5090108;28;20052;-82
2022/05/27 07:31:42;;;;;;;16.70;2.83;;;14.10;99.90;;;;;;5090220;28;20040;-84
2022/05/27 07:34:09;;;;;;;20.40;3.58;;;14.10;99.90;;;;;;5089857;28;20581;-81
2022/05/27 07:36:35;;;;;;;14.05;2.35;;;14.10;99.90;;;;;;5089334;28;20044;-79
2022/05/27 07:39:01;;;;;;;16.42;2.90;;;14.30;99.90;;;;;;5090442;28;20036;-79
2022/05/27 07:41:27;;;;;;;12.10;2.15;;;14.40;99.90;;;;;;5090491;28;20090;-79
2022/05/27 07:43:54;;;;;;;16.83;3.17;;;14.40;99.90;;;;;;5071827;28;20079;-79
2022/05/27 07:46:22;;;;;;;11.00;2.88;;;14.60;99.90;;;;;;5090392;28;20032;-83
2022/05/27 07:48:48;;;;;;;16.48;2.58;;;14.60;99.90;;;;;;5088921;28;20391;-82
2022/05/27 07:51:13;;;;;;;15.38;2.67;;;14.70;99.90;;;;;;5072029;28;20051;-77
2022/05/27 07:53:39;;;;;;;18.50;3.78;;;14.60;99.90;;;;;;5090313;28;20040;-79
2022/05/27 07:56:09;;;;;;;19.42;3.13;;;14.60;99.90;;;;;;5089943;28;20054;-81
2022/05/27 07:58:35;;;;;;;12.43;3.10;;;14.80;99.90;;;;;;5072109;28;20055;-79
2022/05/27 08:01:01;;;;;;;20.42;4.03;;;14.70;99.90;;;;;;5089456;28;20071;-79
2022/05/27 08:03:28;;;;;;;14.20;2.13;;;14.60;99.90;;;;;;5090194;28;20044;-81
2022/05/27 08:05:55;;;;;;;15.35;2.72;;;14.60;99.90;;;;;;5069882;28;20099;-83
2022/05/27 08:08:21;;;;;;;21.90;2.97;;;14.40;99.90;;;;;;5090360;28;20097;-78
2022/05/27 08:10:49;;;;;;;14.07;3.33;;;14.60;99.90;;;;;;5071898;28;20040;-83
2022/05/27 08:13:14;;;;;;;20.98;2.85;;;14.50;99.90;;;;;;5090009;28;20115;-79
2022/05/27 08:15:40;;;;;;;17.52;3.35;;;14.60;99.90;;;;;;5090002;28;20447;-78
2022/05/27 08:18:06;;;;;;;14.98;2.95;;;14.90;99.90;;;;;;5089878;28;20095;-82
2022/05/27 08:20:34;;;;;;;21.25;4.03;;;14.70;99.90;;;;;;5090386;28;20051;-80
2022/05/27 08:23:01;;;;;;;18.27;3.17;;;14.90;99.90;;;;;;5090226;28;20514;-81
2022/05/27 08:25:29;;;;;;;11.50;2.40;;;15.20;99.90;;;;;;5090132;28;20301;-78
2022/05/27 08:27:55;;;;;;;11.27;2.25;;;14.90;99.90;;;;;;5090155;28;20075;-81
2022/05/27 08:30:25;;;;;;;14.70;2.75;;;15.00;99.90;;;;;;5089789;28;20044;-81
2022/05/27 08:32:50;;;;;;;16.88;2.80;;;14.80;99.90;;;;;;5089786;28;20398;-78
2022/05/27 08:38:03;;;;;;;;;;;15.10;99.90;;;;;;5090203;28;20048;-81
2022/05/27 08:41:07;;;;;;;24.92;4.03;;;15.30;99.90;;;;;;5071508;28;19924;-80
2022/05/27 08:43:53;;;;;;;18.20;3.33;;;15.30;99.90;;;;;;5093218;28;20040;-81
2022/05/27 08:46:54;;;;;;;15.95;3.13;;;15.10;99.90;;;;;;5093605;28;20047;-80
2022/05/27 08:49:30;;;;;;;14.93;2.33;;;14.80;99.90;;;;;;5093575;28;20411;-78
2022/05/27 08:52:14;;;;;;;17.25;3.28;;;14.90;99.90;;;;;;5075475;28;20395;-81
2022/05/27 08:54:46;;;;;;;19.47;3.00;;;14.50;99.90;;;;;;5093416;28;20056;-80
2022/05/27 09:00:27;;;;;;;17.23;3.05;;;14.70;99.90;;;;;;5093117;28;20082;-80
2022/05/27 09:03:05;;;;;;;15.23;2.40;;;14.70;99.90;;;;;;4974580;28;20055;-81
2022/05/27 09:05:48;;;;;;;13.68;2.55;;;14.80;99.90;;;;;;4991220;28;20042;-80
2022/05/27 09:08:19;;;;;;;11.95;2.55;;;14.60;99.90;;;;;;4991122;28;20086;-78
2022/05/27 09:11:03;;;;;;;20.33;3.15;;;14.70;99.90;;;;;;4975175;28;20477;-81
2022/05/27 09:13:39;;;;;;;19.45;2.72;;;14.60;99.90;;;;;;4991266;28;20095;-77
2022/05/27 09:16:22;;;;;;;14.82;2.35;;;14.80;99.90;;;;;;4991094;28;20058;-78
2022/05/27 09:19:18;;;;;;;20.25;2.60;;;14.90;99.90;;;;;;4974810;28;20054;-80
2022/05/27 09:22:12;;;;;;;14.57;2.85;;;15.00;99.90;;;;;;4974457;28;20584;-81
2022/05/27 09:24:41;;;;;;;21.20;2.72;;;14.80;99.90;;;;;;4974725;28;20109;-80
2022/05/27 09:27:09;;;;;;;12.85;2.40;;;15.20;99.90;;;;;;4990752;28;20065;-80
2022/05/27 09:29:55;;;;;;;18.17;2.78;;;15.20;99.90;;;;;;4990713;28;20456;-79
2022/05/27 09:33:01;;;;;;;13.98;2.50;;;15.30;99.90;;;;;;4990525;28;20133;-82
2022/05/27 09:35:44;;;;;;;12.88;2.30;;;15.10;99.90;;;;;;4932474;29;20111;-77
2022/05/27 09:38:17;;;;;;;20.05;3.53;;;15.20;99.90;;;;;;4932727;29;20499;-79
2022/05/27 09:40:52;;;;;;;17.20;2.47;;;15.40;99.90;;;;;;5000747;28;20437;-80
2022/05/27 09:43:56;;;;;;;20.17;3.28;;;15.00;99.90;;;;;;5010055;28;20134;-78
2022/05/27 09:46:29;;;;;;;14.13;2.35;;;15.20;99.90;;;;;;5009780;28;20541;-81
2022/05/27 09:48:57;;;;;;;13.93;2.67;;;15.20;99.90;;;;;;5010032;28;20056;-80
2022/05/27 09:51:29;;;;;;;15.65;3.22;;;15.00;99.90;;;;;;5010004;28;20045;-78
2022/05/27 09:54:04;;;;;;;12.52;2.53;;;14.80;99.90;;;;;;5009497;28;20121;-82
2022/05/27 09:56:43;;;;;;;15.32;2.53;;;15.20;99.90;;;;;;5009977;28;20112;-84
2022/05/27 09:59:47;;;;;;;18.05;2.58;;;15.30;99.90;;;;;;5009676;28;20089;-78
2022/05/27 10:02:28;;;;;;;18.52;2.30;;;15.60;99.90;;;;;;4931888;29;20070;-79
2022/05/27 10:05:06;;;;;;;16.67;3.25;;;15.80;99.90;;;;;;4932415;29;20059;-79
2022/05/27 10:07:49;;;;;;;17.90;3.00;;;15.50;99.90;;;;;;4916128;29;20059;-79
2022/05/27 10:10:34;;;;;;;15.30;2.75;;;15.50;99.90;;;;;;4932161;29;20051;-80
2022/05/27 10:13:20;;;;;;;;;;;15.70;99.90;;;;;;5006550;28;20061;-81
2022/05/27 10:15:46;;;;;;;18.33;3.00;;;15.50;99.90;;;;;;4993079;28;20381;-76
2022/05/27 10:18:26;;;;;;;17.35;2.58;;;15.30;99.90;;;;;;4992445;28;20061;-81
2022/05/27 10:20:58;;;;;;;14.98;2.83;;;15.30;99.90;;;;;;5009777;28;20061;-80
2022/05/27 10:23:27;;;;;;;14.30;2.22;;;15.60;99.90;;;;;;5009608;28;20046;-78
2022/05/27 10:25:53;;;;;;;16.42;2.17;;;16.10;99.90;;;;;;5009345;28;20136;-80
2022/05/27 10:28:27;;;;;;;12.48;2.83;;;16.20;99.90;;;;;;5009183;28;20165;-79
2022/05/27 10:30:59;;;;;;;9.77;3.20;;;16.20;99.90;;;;;;4993120;28;20058;-81
2022/05/27 10:33:38;;;;;;;12.70;2.30;;;16.40;99.90;;;;;;5009043;28;20413;-80
2022/05/27 10:36:21;;;;;;;13.52;2.25;;;16.20;99.90;;;;;;4993105;28;20058;-82
2022/05/27 10:39:02;;;;;;;14.75;2.70;;;15.90;99.90;;;;;;5033813;28;20450;-79
2022/05/27 10:41:55;;;;;;;14.25;2.92;;;15.90;99.90;;;;;;5091595;28;20052;-78
2022/05/27 10:44:52;;;;;;;16.13;2.90;;;15.70;99.90;;;;;;5091296;28;20097;-80
2022/05/27 10:47:51;;;;;;;18.52;3.20;;;15.50;99.90;;;;;;5090851;28;20135;-77
2022/05/27 10:50:30;;;;;;;14.70;2.85;;;15.60;99.90;;;;;;5091190;28;20048;-80
2022/05/27 10:53:27;;;;;;;11.85;2.83;;;15.80;99.90;;;;;;5091492;28;20075;-79
2022/05/27 10:56:08;;;;;;;12.95;2.72;;;15.60;99.90;;;;;;5091237;28;20051;-78
2022/05/27 11:02:05;;;;;;;15.32;2.75;;;15.20;99.90;;;;;;5072401;28;20498;-81
2022/05/27 11:04:58;;;;;;;16.70;3.53;;;15.40;99.90;;;;;;5090264;28;20493;-80
2022/05/27 11:07:57;;;;;;;18.15;3.05;;;15.10;99.90;;;;;;5073021;28;20066;-80
2022/05/27 11:10:43;;;;;;;15.65;2.33;;;14.80;99.90;;;;;;4988971;28;20062;-81
2022/05/27 11:16:54;;;;;;;13.65;2.88;;;15.10;99.90;;;;;;4972690;28;20051;-78
2022/05/27 11:19:50;;;;;;;19.52;2.95;;;14.70;99.90;;;;;;4988335;28;20062;-78
2022/05/27 11:22:38;;;;;;;23.13;2.97;;;15.00;99.90;;;;;;4972312;28;20568;-76
2022/05/27 11:25:25;;;;;;;14.90;3.40;;;15.30;99.90;;;;;;4972548;28;20614;-79
2022/05/27 11:28:18;;;;;;;12.05;2.20;;;15.90;99.90;;;;;;4972272;28;20066;-80
2022/05/27 11:31:07;;;;;;;12.98;2.75;;;15.70;99.90;;;;;;4988587;28;20089;-82
2022/05/27 11:34:14;;;;;;;11.40;2.15;;;15.50;99.90;;;;;;4988220;28;20081;-81
2022/05/27 11:36:56;;;;;;;25.10;2.65;;;15.50;99.90;;;;;;4987205;28;20058;-81
2022/05/27 11:40:00;;;;;;;19.70;2.90;;;15.50;99.90;;;;;;4988383;28;20041;-78
2022/05/27 11:43:13;;;;;;;13.20;2.83;;;15.60;99.90;;;;;;4930545;29;20521;-80
2022/05/27 11:45:57;;;;;;;14.48;3.30;;;15.20;99.90;;;;;;4892488;29;20057;-78
2022/05/27 11:48:51;;;;;;;13.85;2.65;;;15.20;99.90;;;;;;4948715;28;20502;-79
2022/05/27 11:51:49;;;;;;;19.23;2.78;;;15.00;99.90;;;;;;4969168;28;20145;-80
2022/05/27 11:54:46;;;;;;;14.45;2.63;;;14.80;99.90;;;;;;4930206;29;20087;-80
2022/05/27 11:57:41;;;;;;;13.98;2.22;;;14.80;99.90;;;;;;4837070;29;20069;-79
2022/05/27 12:00:20;;;;;;;15.85;2.83;;;14.90;99.90;;;;;;4782441;30;20091;-79
2022/05/27 12:03:07;;;;;;;23.90;3.00;;;14.70;99.90;;;;;;4782454;29;20067;-77
2022/05/27 12:05:49;;;;;;;16.33;3.03;;;14.50;99.90;;;;;;4782099;30;20059;-78
2022/05/27 12:08:56;;;;;;;17.52;3.00;;;14.40;99.90;;;;;;4782271;30;20067;-80
2022/05/27 12:11:39;;;;;;;16.10;2.95;;;14.90;99.90;;;;;;4779183;29;20095;-82
2022/05/27 12:14:22;;;;;;;13.20;2.80;;;15.00;99.90;;;;;;4782143;29;20099;-80
2022/05/27 12:17:01;;;;;;;20.80;3.25;;;15.10;99.90;;;;;;4788962;29;20776;-78
2022/05/27 12:19:31;;;;;;;15.80;2.83;;;15.10;99.90;;;;;;4824190;29;20522;-79
2022/05/27 12:22:23;;;;;;;13.07;2.80;;;14.90;99.90;;;;;;4838330;29;20069;-77
2022/05/27 12:25:11;;;;;;;14.93;3.17;;;14.70;99.90;;;;;;4842526;29;20093;-81
2022/05/27 12:27:37;;;;;;;19.50;3.05;;;14.60;99.90;;;;;;4842642;29;20057;-78
2022/05/27 12:30:08;;;;;;;15.32;2.55;;;14.60;99.90;;;;;;4860952;29;20083;-78
2022/05/27 12:32:34;;;;;;;12.07;2.50;;;14.50;99.90;;;;;;4901518;29;20056;-79
2022/05/27 12:35:20;;;;;;;19.25;3.35;;;14.50;99.90;;;;;;5000572;28;20092;-79
2022/05/27 12:37:49;;;;;;;13.05;2.45;;;14.30;99.90;;;;;;5082152;28;20051;-78
2022/05/27 12:40:25;;;;;;;17.50;2.78;;;14.20;99.90;;;;;;5078340;28;20071;-80
2022/05/27 12:42:55;;;;;;;20.13;3.30;;;14.20;99.90;;;;;;5096642;28;20078;-78
2022/05/27 12:45:20;;;;;;;18.25;2.42;;;14.40;99.90;;;;;;5096679;28;20075;-79
2022/05/27 12:47:53;;;;;;;20.55;3.55;;;14.50;99.90;;;;;;5096362;28;20048;-77
2022/05/27 12:50:29;;;;;;;15.70;2.78;;;14.70;99.90;;;;;;5096061;28;20123;-79
2022/05/27 12:52:58;;;;;;;20.13;3.22;;;14.40;99.90;;;;;;5096231;28;20538;-79
2022/05/27 13:00:55;;;;;;;11.90;2.90;;;14.40;99.90;;;;;;5096034;28;20086;-80
2022/05/27 13:01:24;;;;;;;;;;;14.80;99.90;;;;;;5078404;28;20066;-81
2022/05/27 13:03:52;;;;;;;15.57;3.05;;;14.60;99.90;;;;;;5095965;28;19931;-81
2022/05/27 13:06:26;;;;;;;21.50;3.55;;;14.60;99.90;;;;;;5094742;28;20123;-78
2022/05/27 13:08:52;;;;;;;13.88;3.47;;;14.80;99.90;;;;;;5086847;28;20047;-79
2022/05/27 13:11:24;;;;;;;18.33;3.03;;;14.80;99.90;;;;;;5096224;28;20059;-77
2022/05/27 13:14:03;;;;;;;15.15;3.08;;;14.60;99.90;;;;;;5096030;28;20048;-79
2022/05/27 13:16:35;;;;;;;19.45;3.25;;;14.80;99.90;;;;;;5089501;28;20067;-76
2022/05/27 13:19:05;;;;;;;16.35;2.38;;;14.90;99.90;;;;;;5085168;28;20410;-78
2022/05/27 13:21:45;;;;;;;14.88;2.60;;;14.70;99.90;;;;;;5092260;28;20109;-79
2022/05/27 13:24:13;;;;;;;16.02;2.65;;;14.70;99.90;;;;;;5074473;28;20494;-78
2022/05/27 13:26:44;;;;;;;11.77;2.28;;;14.50;99.90;;;;;;5075688;28;20818;-81
2022/05/27 13:29:25;;;;;;;16.75;2.58;;;14.40;99.90;;;;;;5076897;28;20085;-78
2022/05/27 13:32:16;;;;;;;15.75;2.63;;;14.30;99.90;;;;;;5092880;28;20063;-80
2022/05/27 13:34:52;;;;;;;16.75;2.15;;;14.40;99.90;;;;;;5092524;28;20055;-78
2022/05/27 13:37:39;;;;;;;16.45;2.47;;;14.40;99.90;;;;;;5092330;28;20525;-78